sensor_id;sensor_type;location;lat;lon;timestamp;P1;durP1;ratioP1;P2;durP2;ratioP2
56329;SDS011;42236;48.058;10.632;2023-03-23T00:00:37;6.37;;;3.87;;
56329;SDS011;42236;48.058;10.632;2023-03-23T00:03:24;5.73;;;3.40;;
56329;SDS011;42236;48.058;10.632;2023-03-23T00:06:11;4.80;;;3.07;;
56329;SDS011;42236;48.058;10.632;2023-03-23T00:09:02;4.23;;;3.40;;
56329;SDS011;42236;48.058;10.632;2023-03-23T00:11:49;6.70;;;3.60;;
56329;SDS011;42236;48.058;10.632;2023-03-23T00:14:36;9.03;;;3.57;;
56329;SDS011;42236;48.058;10.632;2023-03-23T00:17:29;3.73;;;2.80;;
56329;SDS011;42236;48.058;10.632;2023-03-23T00:20:18;4.50;;;3.53;;
56329;SDS011;42236;48.058;10.632;2023-03-23T00:23:04;9.03;;;3.87;;
56329;SDS011;42236;48.058;10.632;2023-03-23T00:25:51;4.47;;;2.90;;
56329;SDS011;42236;48.058;10.632;2023-03-23T00:28:42;4.03;;;3.30;;
56329;SDS011;42236;48.058;10.632;2023-03-23T00:31:28;5.10;;;3.63;;
56329;SDS011;42236;48.058;10.632;2023-03-23T00:34:20;4.03;;;2.60;;
56329;SDS011;42236;48.058;10.632;2023-03-23T00:37:07;5.40;;;4.87;;
56329;SDS011;42236;48.058;10.632;2023-03-23T00:39:53;3.63;;;3.07;;
56329;SDS011;42236;48.058;10.632;2023-03-23T00:42:42;4.70;;;3.00;;
56329;SDS011;42236;48.058;10.632;2023-03-23T00:45:29;4.73;;;3.33;;
56329;SDS011;42236;48.058;10.632;2023-03-23T00:48:15;3.33;;;2.53;;
56329;SDS011;42236;48.058;10.632;2023-03-23T00:51:01;3.77;;;2.90;;
56329;SDS011;42236;48.058;10.632;2023-03-23T00:53:51;3.80;;;2.70;;
56329;SDS011;42236;48.058;10.632;2023-03-23T00:56:37;3.57;;;2.63;;
56329;SDS011;42236;48.058;10.632;2023-03-23T00:59:24;2.97;;;2.67;;
56329;SDS011;42236;48.058;10.632;2023-03-23T01:02:10;6.57;;;2.73;;
56329;SDS011;42236;48.058;10.632;2023-03-23T01:04:56;5.27;;;2.83;;
56329;SDS011;42236;48.058;10.632;2023-03-23T01:07:42;3.00;;;2.40;;
56329;SDS011;42236;48.058;10.632;2023-03-23T01:10:29;3.07;;;2.77;;
56329;SDS011;42236;48.058;10.632;2023-03-23T01:13:17;3.03;;;2.37;;
56329;SDS011;42236;48.058;10.632;2023-03-23T01:16:03;5.90;;;3.00;;
56329;SDS011;42236;48.058;10.632;2023-03-23T01:18:49;3.70;;;2.63;;
56329;SDS011;42236;48.058;10.632;2023-03-23T01:21:35;3.80;;;2.70;;
56329;SDS011;42236;48.058;10.632;2023-03-23T01:24:21;4.30;;;2.50;;
56329;SDS011;42236;48.058;10.632;2023-03-23T01:27:06;2.83;;;2.40;;
56329;SDS011;42236;48.058;10.632;2023-03-23T01:29:52;2.60;;;2.37;;
56329;SDS011;42236;48.058;10.632;2023-03-23T01:32:38;4.83;;;2.83;;
56329;SDS011;42236;48.058;10.632;2023-03-23T01:35:25;4.37;;;2.83;;
56329;SDS011;42236;48.058;10.632;2023-03-23T01:38:10;3.03;;;2.33;;
56329;SDS011;42236;48.058;10.632;2023-03-23T01:40:56;3.50;;;2.47;;
56329;SDS011;42236;48.058;10.632;2023-03-23T01:46:49;3.23;;;2.50;;
56329;SDS011;42236;48.058;10.632;2023-03-23T01:49:36;6.00;;;2.63;;
56329;SDS011;42236;48.058;10.632;2023-03-23T01:52:26;4.97;;;2.90;;
56329;SDS011;42236;48.058;10.632;2023-03-23T01:55:14;3.77;;;2.70;;
56329;SDS011;42236;48.058;10.632;2023-03-23T01:58:01;3.60;;;3.00;;
56329;SDS011;42236;48.058;10.632;2023-03-23T02:00:46;2.63;;;2.43;;
56329;SDS011;42236;48.058;10.632;2023-03-23T02:03:33;2.70;;;2.50;;
56329;SDS011;42236;48.058;10.632;2023-03-23T02:06:21;3.27;;;2.10;;
56329;SDS011;42236;48.058;10.632;2023-03-23T02:09:07;3.10;;;2.53;;
56329;SDS011;42236;48.058;10.632;2023-03-23T02:11:53;2.80;;;2.53;;
56329;SDS011;42236;48.058;10.632;2023-03-23T02:14:40;4.33;;;2.70;;
56329;SDS011;42236;48.058;10.632;2023-03-23T02:17:31;3.73;;;2.63;;
56329;SDS011;42236;48.058;10.632;2023-03-23T02:26:57;3.53;;;2.30;;
56329;SDS011;42236;48.058;10.632;2023-03-23T02:33:24;4.53;;;3.10;;
56329;SDS011;42236;48.058;10.632;2023-03-23T02:39:40;2.83;;;2.43;;
56329;SDS011;42236;48.058;10.632;2023-03-23T02:42:31;3.57;;;2.37;;
56329;SDS011;42236;48.058;10.632;2023-03-23T02:45:20;5.10;;;2.50;;
56329;SDS011;42236;48.058;10.632;2023-03-23T02:48:08;2.30;;;2.03;;
56329;SDS011;42236;48.058;10.632;2023-03-23T02:50:56;3.90;;;3.07;;
56329;SDS011;42236;48.058;10.632;2023-03-23T02:53:43;3.07;;;2.77;;
56329;SDS011;42236;48.058;10.632;2023-03-23T02:56:30;2.40;;;2.20;;
56329;SDS011;42236;48.058;10.632;2023-03-23T02:59:18;4.00;;;2.43;;
56329;SDS011;42236;48.058;10.632;2023-03-23T03:02:04;3.40;;;2.83;;
56329;SDS011;42236;48.058;10.632;2023-03-23T03:04:58;3.00;;;2.40;;
56329;SDS011;42236;48.058;10.632;2023-03-23T03:11:38;3.30;;;2.00;;
56329;SDS011;42236;48.058;10.632;2023-03-23T03:15:02;3.83;;;2.33;;
56329;SDS011;42236;48.058;10.632;2023-03-23T03:17:40;3.37;;;2.73;;
56329;SDS011;42236;48.058;10.632;2023-03-23T03:20:29;3.67;;;2.80;;
56329;SDS011;42236;48.058;10.632;2023-03-23T03:23:17;2.47;;;2.20;;
56329;SDS011;42236;48.058;10.632;2023-03-23T03:26:06;2.47;;;1.90;;
56329;SDS011;42236;48.058;10.632;2023-03-23T03:28:57;3.90;;;2.17;;
56329;SDS011;42236;48.058;10.632;2023-03-23T03:31:44;5.13;;;2.97;;
56329;SDS011;42236;48.058;10.632;2023-03-23T03:34:31;4.37;;;2.53;;
56329;SDS011;42236;48.058;10.632;2023-03-23T03:37:18;4.23;;;2.57;;
56329;SDS011;42236;48.058;10.632;2023-03-23T03:40:07;5.93;;;2.67;;
56329;SDS011;42236;48.058;10.632;2023-03-23T03:42:56;3.00;;;2.30;;
56329;SDS011;42236;48.058;10.632;2023-03-23T03:45:42;5.80;;;2.80;;
56329;SDS011;42236;48.058;10.632;2023-03-23T03:48:28;3.10;;;2.47;;
56329;SDS011;42236;48.058;10.632;2023-03-23T03:51:14;2.30;;;2.03;;
56329;SDS011;42236;48.058;10.632;2023-03-23T03:53:59;2.77;;;2.47;;
56329;SDS011;42236;48.058;10.632;2023-03-23T03:56:45;3.60;;;2.20;;
56329;SDS011;42236;48.058;10.632;2023-03-23T03:59:31;3.37;;;2.43;;
56329;SDS011;42236;48.058;10.632;2023-03-23T04:02:18;2.53;;;2.13;;
56329;SDS011;42236;48.058;10.632;2023-03-23T04:05:05;2.77;;;2.47;;
56329;SDS011;42236;48.058;10.632;2023-03-23T04:07:51;2.63;;;2.10;;
56329;SDS011;42236;48.058;10.632;2023-03-23T04:10:37;2.40;;;2.20;;
56329;SDS011;42236;48.058;10.632;2023-03-23T04:13:23;3.53;;;2.70;;
56329;SDS011;42236;48.058;10.632;2023-03-23T04:16:09;2.73;;;2.43;;
56329;SDS011;42236;48.058;10.632;2023-03-23T04:18:55;2.30;;;1.80;;
56329;SDS011;42236;48.058;10.632;2023-03-23T04:21:41;7.07;;;2.20;;
56329;SDS011;42236;48.058;10.632;2023-03-23T04:24:27;2.40;;;2.20;;
56329;SDS011;42236;48.058;10.632;2023-03-23T04:27:16;3.03;;;2.00;;
56329;SDS011;42236;48.058;10.632;2023-03-23T04:30:02;7.73;;;2.60;;
56329;SDS011;42236;48.058;10.632;2023-03-23T04:32:50;3.00;;;2.10;;
56329;SDS011;42236;48.058;10.632;2023-03-23T04:35:37;2.17;;;1.97;;
56329;SDS011;42236;48.058;10.632;2023-03-23T04:38:23;3.50;;;2.37;;
56329;SDS011;42236;48.058;10.632;2023-03-23T04:41:09;2.50;;;2.30;;
56329;SDS011;42236;48.058;10.632;2023-03-23T04:43:55;2.43;;;2.23;;
56329;SDS011;42236;48.058;10.632;2023-03-23T04:46:42;5.63;;;2.90;;
56329;SDS011;42236;48.058;10.632;2023-03-23T04:49:30;2.63;;;1.97;;
56329;SDS011;42236;48.058;10.632;2023-03-23T04:52:16;2.97;;;2.20;;
56329;SDS011;42236;48.058;10.632;2023-03-23T04:55:01;3.43;;;2.30;;
56329;SDS011;42236;48.058;10.632;2023-03-23T04:57:47;3.90;;;2.57;;
56329;SDS011;42236;48.058;10.632;2023-03-23T05:00:33;2.40;;;1.93;;
56329;SDS011;42236;48.058;10.632;2023-03-23T05:03:20;3.33;;;2.43;;
56329;SDS011;42236;48.058;10.632;2023-03-23T05:06:06;3.90;;;2.70;;
56329;SDS011;42236;48.058;10.632;2023-03-23T05:08:52;3.50;;;2.93;;
56329;SDS011;42236;48.058;10.632;2023-03-23T05:11:37;3.93;;;2.33;;
56329;SDS011;42236;48.058;10.632;2023-03-23T05:14:23;2.80;;;2.57;;
56329;SDS011;42236;48.058;10.632;2023-03-23T05:17:09;4.23;;;2.60;;
56329;SDS011;42236;48.058;10.632;2023-03-23T05:19:55;2.77;;;2.40;;
56329;SDS011;42236;48.058;10.632;2023-03-23T05:22:41;3.67;;;1.90;;
56329;SDS011;42236;48.058;10.632;2023-03-23T05:25:29;5.60;;;2.97;;
56329;SDS011;42236;48.058;10.632;2023-03-23T05:28:15;2.83;;;2.63;;
56329;SDS011;42236;48.058;10.632;2023-03-23T05:31:01;2.93;;;2.63;;
56329;SDS011;42236;48.058;10.632;2023-03-23T05:33:47;2.37;;;2.13;;
56329;SDS011;42236;48.058;10.632;2023-03-23T05:36:32;4.77;;;2.33;;
56329;SDS011;42236;48.058;10.632;2023-03-23T05:39:18;3.17;;;2.33;;
56329;SDS011;42236;48.058;10.632;2023-03-23T05:42:04;3.93;;;2.13;;
56329;SDS011;42236;48.058;10.632;2023-03-23T05:44:51;2.87;;;1.97;;
56329;SDS011;42236;48.058;10.632;2023-03-23T05:47:38;3.47;;;2.30;;
56329;SDS011;42236;48.058;10.632;2023-03-23T05:50:25;3.83;;;1.90;;
56329;SDS011;42236;48.058;10.632;2023-03-23T05:53:11;2.03;;;1.70;;
56329;SDS011;42236;48.058;10.632;2023-03-23T05:55:58;3.67;;;2.27;;
56329;SDS011;42236;48.058;10.632;2023-03-23T05:58:46;4.17;;;2.63;;
56329;SDS011;42236;48.058;10.632;2023-03-23T06:01:31;3.57;;;2.27;;
56329;SDS011;42236;48.058;10.632;2023-03-23T06:04:17;3.83;;;2.13;;
56329;SDS011;42236;48.058;10.632;2023-03-23T06:07:03;4.70;;;2.07;;
56329;SDS011;42236;48.058;10.632;2023-03-23T06:09:50;3.53;;;2.33;;
56329;SDS011;42236;48.058;10.632;2023-03-23T06:12:36;3.73;;;2.37;;
56329;SDS011;42236;48.058;10.632;2023-03-23T06:15:23;2.10;;;1.90;;
56329;SDS011;42236;48.058;10.632;2023-03-23T06:18:10;2.67;;;2.17;;
56329;SDS011;42236;48.058;10.632;2023-03-23T06:20:58;2.13;;;1.90;;
56329;SDS011;42236;48.058;10.632;2023-03-23T06:23:44;4.93;;;2.03;;
56329;SDS011;42236;48.058;10.632;2023-03-23T06:26:32;4.43;;;2.23;;
56329;SDS011;42236;48.058;10.632;2023-03-23T06:29:20;2.40;;;2.13;;
56329;SDS011;42236;48.058;10.632;2023-03-23T06:32:05;2.77;;;1.97;;
56329;SDS011;42236;48.058;10.632;2023-03-23T06:34:51;2.40;;;1.93;;
56329;SDS011;42236;48.058;10.632;2023-03-23T06:37:37;3.43;;;2.30;;
56329;SDS011;42236;48.058;10.632;2023-03-23T06:40:23;4.63;;;2.17;;
56329;SDS011;42236;48.058;10.632;2023-03-23T06:43:09;3.07;;;2.20;;
56329;SDS011;42236;48.058;10.632;2023-03-23T06:45:54;3.47;;;2.60;;
56329;SDS011;42236;48.058;10.632;2023-03-23T06:48:43;4.33;;;2.50;;
56329;SDS011;42236;48.058;10.632;2023-03-23T06:51:29;3.10;;;2.07;;
56329;SDS011;42236;48.058;10.632;2023-03-23T06:54:14;6.50;;;2.97;;
56329;SDS011;42236;48.058;10.632;2023-03-23T06:57:00;3.33;;;2.03;;
56329;SDS011;42236;48.058;10.632;2023-03-23T06:59:46;5.17;;;2.00;;
56329;SDS011;42236;48.058;10.632;2023-03-23T07:02:32;5.63;;;2.20;;
56329;SDS011;42236;48.058;10.632;2023-03-23T07:05:18;4.07;;;1.87;;
56329;SDS011;42236;48.058;10.632;2023-03-23T07:08:04;5.00;;;2.23;;
56329;SDS011;42236;48.058;10.632;2023-03-23T07:10:51;4.67;;;1.93;;
56329;SDS011;42236;48.058;10.632;2023-03-23T07:13:38;4.73;;;2.00;;
56329;SDS011;42236;48.058;10.632;2023-03-23T07:16:23;5.22;;;2.17;;
56329;SDS011;42236;48.058;10.632;2023-03-23T07:19:09;10.03;;;2.63;;
56329;SDS011;42236;48.058;10.632;2023-03-23T07:21:55;2.43;;;1.70;;
56329;SDS011;42236;48.058;10.632;2023-03-23T07:24:42;4.53;;;1.83;;
56329;SDS011;42236;48.058;10.632;2023-03-23T07:27:28;3.58;;;1.70;;
56329;SDS011;42236;48.058;10.632;2023-03-23T07:30:16;7.85;;;2.45;;
56329;SDS011;42236;48.058;10.632;2023-03-23T07:33:05;7.20;;;2.10;;
56329;SDS011;42236;48.058;10.632;2023-03-23T07:35:52;2.47;;;1.88;;
56329;SDS011;42236;48.058;10.632;2023-03-23T07:38:38;5.03;;;3.05;;
56329;SDS011;42236;48.058;10.632;2023-03-23T07:41:24;8.15;;;3.53;;
56329;SDS011;42236;48.058;10.632;2023-03-23T07:44:09;6.38;;;2.35;;
56329;SDS011;42236;48.058;10.632;2023-03-23T07:46:55;6.68;;;2.55;;
56329;SDS011;42236;48.058;10.632;2023-03-23T07:49:41;8.13;;;1.80;;
56329;SDS011;42236;48.058;10.632;2023-03-23T07:52:27;4.35;;;1.42;;
56329;SDS011;42236;48.058;10.632;2023-03-23T07:55:13;13.30;;;1.70;;
56329;SDS011;42236;48.058;10.632;2023-03-23T07:58:02;4.93;;;1.38;;
56329;SDS011;42236;48.058;10.632;2023-03-23T08:00:48;3.30;;;1.73;;
56329;SDS011;42236;48.058;10.632;2023-03-23T08:03:35;3.38;;;1.45;;
56329;SDS011;42236;48.058;10.632;2023-03-23T08:06:22;2.80;;;1.27;;
56329;SDS011;42236;48.058;10.632;2023-03-23T08:09:09;1.75;;;1.23;;
56329;SDS011;42236;48.058;10.632;2023-03-23T08:11:55;1.85;;;1.25;;
56329;SDS011;42236;48.058;10.632;2023-03-23T08:14:41;2.75;;;1.77;;
56329;SDS011;42236;48.058;10.632;2023-03-23T08:17:27;2.13;;;1.40;;
56329;SDS011;42236;48.058;10.632;2023-03-23T08:20:12;1.55;;;1.25;;
56329;SDS011;42236;48.058;10.632;2023-03-23T08:22:58;1.52;;;1.17;;
56329;SDS011;42236;48.058;10.632;2023-03-23T08:25:45;2.67;;;1.00;;
56329;SDS011;42236;48.058;10.632;2023-03-23T08:28:31;2.08;;;0.90;;
56329;SDS011;42236;48.058;10.632;2023-03-23T08:31:18;2.00;;;1.00;;
56329;SDS011;42236;48.058;10.632;2023-03-23T08:34:04;1.75;;;0.90;;
56329;SDS011;42236;48.058;10.632;2023-03-23T08:36:50;1.05;;;0.80;;
56329;SDS011;42236;48.058;10.632;2023-03-23T08:39:38;1.23;;;0.90;;
56329;SDS011;42236;48.058;10.632;2023-03-23T08:42:24;1.15;;;0.70;;
56329;SDS011;42236;48.058;10.632;2023-03-23T08:45:11;0.80;;;0.80;;
56329;SDS011;42236;48.058;10.632;2023-03-23T08:47:58;2.35;;;1.23;;
56329;SDS011;42236;48.058;10.632;2023-03-23T08:50:44;1.30;;;1.02;;
56329;SDS011;42236;48.058;10.632;2023-03-23T08:53:30;6.57;;;2.00;;
56329;SDS011;42236;48.058;10.632;2023-03-23T08:56:16;3.53;;;1.52;;
56329;SDS011;42236;48.058;10.632;2023-03-23T08:59:02;2.05;;;0.93;;
56329;SDS011;42236;48.058;10.632;2023-03-23T09:01:48;1.13;;;0.93;;
56329;SDS011;42236;48.058;10.632;2023-03-23T09:04:34;2.60;;;1.00;;
56329;SDS011;42236;48.058;10.632;2023-03-23T09:07:22;0.93;;;0.70;;
56329;SDS011;42236;48.058;10.632;2023-03-23T09:10:09;0.73;;;0.70;;
56329;SDS011;42236;48.058;10.632;2023-03-23T09:12:55;1.52;;;1.00;;
56329;SDS011;42236;48.058;10.632;2023-03-23T09:15:42;1.17;;;0.93;;
56329;SDS011;42236;48.058;10.632;2023-03-23T09:18:27;1.27;;;0.80;;
56329;SDS011;42236;48.058;10.632;2023-03-23T09:21:13;0.82;;;0.70;;
56329;SDS011;42236;48.058;10.632;2023-03-23T09:23:59;0.85;;;0.85;;
56329;SDS011;42236;48.058;10.632;2023-03-23T09:26:46;1.45;;;0.80;;
56329;SDS011;42236;48.058;10.632;2023-03-23T09:29:32;1.45;;;1.05;;
56329;SDS011;42236;48.058;10.632;2023-03-23T09:32:18;1.33;;;1.00;;
56329;SDS011;42236;48.058;10.632;2023-03-23T09:35:06;1.05;;;0.90;;
56329;SDS011;42236;48.058;10.632;2023-03-23T09:37:55;1.38;;;0.90;;
56329;SDS011;42236;48.058;10.632;2023-03-23T09:46:50;1.10;;;1.00;;
56329;SDS011;42236;48.058;10.632;2023-03-23T09:49:45;1.10;;;1.00;;
56329;SDS011;42236;48.058;10.632;2023-03-23T09:52:48;2.72;;;1.38;;
56329;SDS011;42236;48.058;10.632;2023-03-23T09:55:44;1.63;;;0.93;;
56329;SDS011;42236;48.058;10.632;2023-03-23T09:58:31;4.63;;;1.13;;
56329;SDS011;42236;48.058;10.632;2023-03-23T10:01:27;2.15;;;1.13;;
56329;SDS011;42236;48.058;10.632;2023-03-23T10:07:27;4.10;;;1.30;;
56329;SDS011;42236;48.058;10.632;2023-03-23T10:10:14;2.70;;;1.30;;
56329;SDS011;42236;48.058;10.632;2023-03-23T10:13:06;1.77;;;1.20;;
56329;SDS011;42236;48.058;10.632;2023-03-23T10:19:46;1.48;;;1.38;;
56329;SDS011;42236;48.058;10.632;2023-03-23T10:36:04;1.20;;;1.02;;
56329;SDS011;42236;48.058;10.632;2023-03-23T10:41:46;2.40;;;1.23;;
56329;SDS011;42236;48.058;10.632;2023-03-23T10:44:33;1.50;;;1.08;;
56329;SDS011;42236;48.058;10.632;2023-03-23T10:47:19;2.22;;;1.05;;
56329;SDS011;42236;48.058;10.632;2023-03-23T10:50:28;1.55;;;1.13;;
56329;SDS011;42236;48.058;10.632;2023-03-23T10:54:24;1.35;;;1.20;;
56329;SDS011;42236;48.058;10.632;2023-03-23T10:57:22;1.00;;;0.90;;
56329;SDS011;42236;48.058;10.632;2023-03-23T11:04:27;1.42;;;0.93;;
56329;SDS011;42236;48.058;10.632;2023-03-23T11:07:17;0.95;;;0.85;;
56329;SDS011;42236;48.058;10.632;2023-03-23T11:17:20;1.20;;;1.10;;
56329;SDS011;42236;48.058;10.632;2023-03-23T11:20:19;1.00;;;0.90;;
56329;SDS011;42236;48.058;10.632;2023-03-23T11:23:21;1.92;;;0.98;;
56329;SDS011;42236;48.058;10.632;2023-03-23T11:29:56;1.42;;;0.70;;
56329;SDS011;42236;48.058;10.632;2023-03-23T11:32:46;2.80;;;1.73;;
56329;SDS011;42236;48.058;10.632;2023-03-23T11:35:36;0.77;;;0.77;;
56329;SDS011;42236;48.058;10.632;2023-03-23T11:38:42;1.00;;;0.80;;
56329;SDS011;42236;48.058;10.632;2023-03-23T11:44:41;0.80;;;0.80;;
56329;SDS011;42236;48.058;10.632;2023-03-23T11:57:24;0.60;;;0.60;;
56329;SDS011;42236;48.058;10.632;2023-03-23T12:00:14;2.45;;;0.63;;
56329;SDS011;42236;48.058;10.632;2023-03-23T12:23:06;0.60;;;0.60;;
56329;SDS011;42236;48.058;10.632;2023-03-23T12:28:59;0.68;;;0.68;;
56329;SDS011;42236;48.058;10.632;2023-03-23T12:38:20;1.23;;;0.70;;
56329;SDS011;42236;48.058;10.632;2023-03-23T12:44:50;1.73;;;1.20;;
56329;SDS011;42236;48.058;10.632;2023-03-23T12:51:14;0.82;;;0.70;;
56329;SDS011;42236;48.058;10.632;2023-03-23T12:54:19;1.23;;;0.80;;
56329;SDS011;42236;48.058;10.632;2023-03-23T12:57:22;1.08;;;0.63;;
56329;SDS011;42236;48.058;10.632;2023-03-23T13:00:18;0.70;;;0.70;;
56329;SDS011;42236;48.058;10.632;2023-03-23T13:03:11;1.05;;;0.75;;
56329;SDS011;42236;48.058;10.632;2023-03-23T13:09:48;1.25;;;0.80;;
56329;SDS011;42236;48.058;10.632;2023-03-23T13:12:44;1.95;;;0.90;;
56329;SDS011;42236;48.058;10.632;2023-03-23T13:22:18;1.38;;;0.82;;
56329;SDS011;42236;48.058;10.632;2023-03-23T13:25:18;1.15;;;0.75;;
56329;SDS011;42236;48.058;10.632;2023-03-23T13:28:32;0.70;;;0.70;;
56329;SDS011;42236;48.058;10.632;2023-03-23T13:31:52;1.40;;;0.70;;
56329;SDS011;42236;48.058;10.632;2023-03-23T13:34:50;2.15;;;0.82;;
56329;SDS011;42236;48.058;10.632;2023-03-23T13:37:40;1.02;;;0.93;;
56329;SDS011;42236;48.058;10.632;2023-03-23T13:40:31;2.25;;;0.85;;
56329;SDS011;42236;48.058;10.632;2023-03-23T13:43:27;0.68;;;0.60;;
56329;SDS011;42236;48.058;10.632;2023-03-23T13:49:05;1.00;;;0.80;;
56329;SDS011;42236;48.058;10.632;2023-03-23T13:52:21;1.15;;;0.75;;
56329;SDS011;42236;48.058;10.632;2023-03-23T14:04:13;2.80;;;0.90;;
56329;SDS011;42236;48.058;10.632;2023-03-23T14:07:08;1.25;;;0.70;;
56329;SDS011;42236;48.058;10.632;2023-03-23T14:09:56;1.25;;;0.88;;
56329;SDS011;42236;48.058;10.632;2023-03-23T14:12:42;2.58;;;0.80;;
56329;SDS011;42236;48.058;10.632;2023-03-23T14:15:44;1.30;;;0.65;;
56329;SDS011;42236;48.058;10.632;2023-03-23T14:18:40;1.95;;;0.70;;
56329;SDS011;42236;48.058;10.632;2023-03-23T14:24:26;1.20;;;0.88;;
56329;SDS011;42236;48.058;10.632;2023-03-23T14:27:24;0.70;;;0.70;;
56329;SDS011;42236;48.058;10.632;2023-03-23T14:30:34;0.70;;;0.70;;
56329;SDS011;42236;48.058;10.632;2023-03-23T14:33:25;2.95;;;0.90;;
56329;SDS011;42236;48.058;10.632;2023-03-23T14:36:12;2.33;;;0.65;;
56329;SDS011;42236;48.058;10.632;2023-03-23T14:42:04;3.53;;;0.75;;
56329;SDS011;42236;48.058;10.632;2023-03-23T14:45:01;2.45;;;0.70;;
56329;SDS011;42236;48.058;10.632;2023-03-23T14:47:53;1.10;;;0.70;;
56329;SDS011;42236;48.058;10.632;2023-03-23T14:50:48;0.52;;;0.52;;
56329;SDS011;42236;48.058;10.632;2023-03-23T14:53:37;1.95;;;0.70;;
56329;SDS011;42236;48.058;10.632;2023-03-23T14:56:30;1.13;;;0.85;;
56329;SDS011;42236;48.058;10.632;2023-03-23T15:02:38;1.00;;;0.60;;
56329;SDS011;42236;48.058;10.632;2023-03-23T15:05:33;0.60;;;0.60;;
56329;SDS011;42236;48.058;10.632;2023-03-23T15:14:15;1.02;;;0.70;;
56329;SDS011;42236;48.058;10.632;2023-03-23T15:17:29;0.82;;;0.77;;
56329;SDS011;42236;48.058;10.632;2023-03-23T15:20:22;0.77;;;0.70;;
56329;SDS011;42236;48.058;10.632;2023-03-23T15:23:14;0.80;;;0.80;;
56329;SDS011;42236;48.058;10.632;2023-03-23T15:26:03;0.90;;;0.70;;
56329;SDS011;42236;48.058;10.632;2023-03-23T15:29:00;1.30;;;0.52;;
56329;SDS011;42236;48.058;10.632;2023-03-23T15:31:50;0.70;;;0.70;;
56329;SDS011;42236;48.058;10.632;2023-03-23T15:34:38;3.55;;;0.70;;
56329;SDS011;42236;48.058;10.632;2023-03-23T15:40:37;1.10;;;0.85;;
56329;SDS011;42236;48.058;10.632;2023-03-23T15:43:25;1.27;;;0.60;;
56329;SDS011;42236;48.058;10.632;2023-03-23T15:52:06;1.85;;;0.90;;
56329;SDS011;42236;48.058;10.632;2023-03-23T15:54:54;0.80;;;0.73;;
56329;SDS011;42236;48.058;10.632;2023-03-23T15:57:40;1.02;;;0.70;;
56329;SDS011;42236;48.058;10.632;2023-03-23T16:00:28;1.52;;;0.88;;
56329;SDS011;42236;48.058;10.632;2023-03-23T16:03:17;2.33;;;0.90;;
56329;SDS011;42236;48.058;10.632;2023-03-23T16:06:20;1.42;;;0.80;;
56329;SDS011;42236;48.058;10.632;2023-03-23T16:09:07;1.10;;;0.80;;
56329;SDS011;42236;48.058;10.632;2023-03-23T16:11:58;1.17;;;0.88;;
56329;SDS011;42236;48.058;10.632;2023-03-23T16:14:44;1.40;;;0.70;;
56329;SDS011;42236;48.058;10.632;2023-03-23T16:17:30;1.45;;;0.90;;
56329;SDS011;42236;48.058;10.632;2023-03-23T16:20:18;2.50;;;1.00;;
56329;SDS011;42236;48.058;10.632;2023-03-23T16:23:06;2.45;;;0.80;;
56329;SDS011;42236;48.058;10.632;2023-03-23T16:25:54;0.73;;;0.60;;
56329;SDS011;42236;48.058;10.632;2023-03-23T16:28:40;2.92;;;0.80;;
56329;SDS011;42236;48.058;10.632;2023-03-23T16:31:27;1.55;;;1.00;;
56329;SDS011;42236;48.058;10.632;2023-03-23T16:34:12;0.93;;;0.82;;
56329;SDS011;42236;48.058;10.632;2023-03-23T16:36:58;1.27;;;0.90;;
56329;SDS011;42236;48.058;10.632;2023-03-23T16:39:44;1.45;;;1.00;;
56329;SDS011;42236;48.058;10.632;2023-03-23T16:42:30;1.73;;;1.00;;
56329;SDS011;42236;48.058;10.632;2023-03-23T16:45:16;0.98;;;0.90;;
56329;SDS011;42236;48.058;10.632;2023-03-23T16:48:02;1.35;;;0.95;;
56329;SDS011;42236;48.058;10.632;2023-03-23T16:50:48;1.70;;;1.17;;
56329;SDS011;42236;48.058;10.632;2023-03-23T16:53:36;2.58;;;0.90;;
56329;SDS011;42236;48.058;10.632;2023-03-23T16:56:22;1.65;;;0.98;;
56329;SDS011;42236;48.058;10.632;2023-03-23T16:59:07;1.00;;;0.80;;
56329;SDS011;42236;48.058;10.632;2023-03-23T17:01:53;2.28;;;1.00;;
56329;SDS011;42236;48.058;10.632;2023-03-23T17:04:45;1.30;;;0.90;;
56329;SDS011;42236;48.058;10.632;2023-03-23T17:07:31;2.97;;;0.98;;
56329;SDS011;42236;48.058;10.632;2023-03-23T17:10:17;1.42;;;1.00;;
56329;SDS011;42236;48.058;10.632;2023-03-23T17:13:03;1.83;;;1.20;;
56329;SDS011;42236;48.058;10.632;2023-03-23T17:15:50;2.08;;;0.93;;
56329;SDS011;42236;48.058;10.632;2023-03-23T17:18:37;1.73;;;1.00;;
56329;SDS011;42236;48.058;10.632;2023-03-23T17:21:23;1.38;;;1.10;;
56329;SDS011;42236;48.058;10.632;2023-03-23T17:24:10;1.10;;;0.95;;
56329;SDS011;42236;48.058;10.632;2023-03-23T17:26:56;1.88;;;0.95;;
56329;SDS011;42236;48.058;10.632;2023-03-23T17:29:41;1.55;;;1.02;;
56329;SDS011;42236;48.058;10.632;2023-03-23T17:32:27;3.35;;;1.23;;
56329;SDS011;42236;48.058;10.632;2023-03-23T17:35:31;1.50;;;1.20;;
56329;SDS011;42236;48.058;10.632;2023-03-23T17:38:17;2.30;;;1.17;;
56329;SDS011;42236;48.058;10.632;2023-03-23T17:41:03;1.50;;;1.10;;
56329;SDS011;42236;48.058;10.632;2023-03-23T17:43:50;1.73;;;1.20;;
56329;SDS011;42236;48.058;10.632;2023-03-23T17:46:36;1.95;;;1.00;;
56329;SDS011;42236;48.058;10.632;2023-03-23T17:49:22;2.08;;;1.40;;
56329;SDS011;42236;48.058;10.632;2023-03-23T17:52:08;1.40;;;1.10;;
56329;SDS011;42236;48.058;10.632;2023-03-23T17:54:54;1.95;;;1.25;;
56329;SDS011;42236;48.058;10.632;2023-03-23T17:57:40;2.00;;;1.38;;
56329;SDS011;42236;48.058;10.632;2023-03-23T18:00:26;2.22;;;1.10;;
56329;SDS011;42236;48.058;10.632;2023-03-23T18:03:12;1.88;;;1.33;;
56329;SDS011;42236;48.058;10.632;2023-03-23T18:05:58;2.03;;;1.55;;
56329;SDS011;42236;48.058;10.632;2023-03-23T18:08:45;1.88;;;1.30;;
56329;SDS011;42236;48.058;10.632;2023-03-23T18:11:31;1.65;;;1.20;;
56329;SDS011;42236;48.058;10.632;2023-03-23T18:14:16;2.67;;;1.33;;
56329;SDS011;42236;48.058;10.632;2023-03-23T18:17:02;3.95;;;1.33;;
56329;SDS011;42236;48.058;10.632;2023-03-23T18:19:48;4.53;;;1.35;;
56329;SDS011;42236;48.058;10.632;2023-03-23T18:22:34;1.50;;;1.20;;
56329;SDS011;42236;48.058;10.632;2023-03-23T18:25:19;1.05;;;1.00;;
56329;SDS011;42236;48.058;10.632;2023-03-23T18:28:05;2.17;;;1.42;;
56329;SDS011;42236;48.058;10.632;2023-03-23T18:30:51;1.48;;;1.30;;
56329;SDS011;42236;48.058;10.632;2023-03-23T18:33:37;3.40;;;1.40;;
56329;SDS011;42236;48.058;10.632;2023-03-23T18:36:26;1.92;;;1.38;;
56329;SDS011;42236;48.058;10.632;2023-03-23T18:39:13;1.90;;;1.15;;
56329;SDS011;42236;48.058;10.632;2023-03-23T18:42:00;1.92;;;1.20;;
56329;SDS011;42236;48.058;10.632;2023-03-23T18:44:45;1.10;;;1.00;;
56329;SDS011;42236;48.058;10.632;2023-03-23T18:47:31;1.55;;;1.27;;
56329;SDS011;42236;48.058;10.632;2023-03-23T18:50:17;2.80;;;1.33;;
56329;SDS011;42236;48.058;10.632;2023-03-23T18:53:03;3.55;;;2.38;;
56329;SDS011;42236;48.058;10.632;2023-03-23T18:55:49;2.38;;;1.30;;
56329;SDS011;42236;48.058;10.632;2023-03-23T18:58:35;2.22;;;1.50;;
56329;SDS011;42236;48.058;10.632;2023-03-23T19:01:21;3.08;;;1.50;;
56329;SDS011;42236;48.058;10.632;2023-03-23T19:04:07;3.25;;;1.42;;
56329;SDS011;42236;48.058;10.632;2023-03-23T19:06:53;2.30;;;1.48;;
56329;SDS011;42236;48.058;10.632;2023-03-23T19:09:39;1.92;;;1.45;;
56329;SDS011;42236;48.058;10.632;2023-03-23T19:12:28;4.13;;;1.42;;
56329;SDS011;42236;48.058;10.632;2023-03-23T19:15:14;2.10;;;1.63;;
56329;SDS011;42236;48.058;10.632;2023-03-23T19:18:00;2.65;;;1.90;;
56329;SDS011;42236;48.058;10.632;2023-03-23T19:20:46;2.50;;;1.40;;